createdAt,value
2022-09-09T00:01:10.189Z,1.63
2022-09-09T00:06:22.359Z,1.50
2022-09-09T00:11:50.176Z,1.67
2022-09-09T00:16:56.780Z,1.52
2022-09-09T00:22:18.608Z,1.70
2022-09-09T00:27:43.443Z,2.20
2022-09-09T00:32:45.711Z,2.05
2022-09-09T00:37:49.973Z,2.70
2022-09-09T00:43:04.901Z,2.67
2022-09-09T00:48:12.624Z,3.20
2022-09-09T00:53:25.420Z,2.67
2022-09-09T00:58:28.572Z,2.83
2022-09-09T01:03:38.336Z,4.53
2022-09-09T01:09:14.100Z,4.85
2022-09-09T01:14:37.766Z,5.78
2022-09-09T01:19:43.851Z,5.68
2022-09-09T01:25:10.248Z,5.93
2022-09-09T01:36:04.360Z,5.85
2022-09-09T01:41:12.075Z,6.32
2022-09-09T01:46:29.840Z,5.97
2022-09-09T01:51:32.419Z,5.25
2022-09-09T01:57:16.248Z,4.78
2022-09-09T02:02:27.637Z,4.47
2022-09-09T02:07:41.593Z,5.07
2022-09-09T02:13:02.561Z,4.57
2022-09-09T02:18:08.964Z,3.58
2022-09-09T02:23:12.761Z,3.72
2022-09-09T02:28:17.714Z,4.07
2022-09-09T02:33:20.525Z,4.30
2022-09-09T02:38:29.903Z,3.65
2022-09-09T02:43:43.673Z,3.50
2022-09-09T02:49:00.530Z,3.70
2022-09-09T02:54:21.918Z,3.67
2022-09-09T02:59:26.307Z,3.30
2022-09-09T03:04:29.093Z,3.97
2022-09-09T03:09:33.748Z,3.60
2022-09-09T03:14:36.011Z,3.78
2022-09-09T03:19:38.560Z,4.05
2022-09-09T03:24:42.596Z,3.92
2022-09-09T03:29:45.960Z,3.90
2022-09-09T03:34:51.145Z,4.18
2022-09-09T03:39:55.547Z,4.93
2022-09-09T03:44:58.856Z,5.30
2022-09-09T03:50:01.110Z,5.93
2022-09-09T03:55:05.043Z,6.30
2022-09-09T04:00:08.651Z,6.57
2022-09-09T04:05:21.288Z,7.18
2022-09-09T04:10:24.275Z,6.22
2022-09-09T04:15:26.723Z,6.28
2022-09-09T04:20:28.448Z,5.75
2022-09-09T04:25:30.182Z,5.60
2022-09-09T04:30:32.811Z,5.28
2022-09-09T04:35:34.914Z,4.70
2022-09-09T04:40:36.811Z,4.93
2022-09-09T04:45:38.530Z,4.75
2022-09-09T04:50:41.554Z,4.75
2022-09-09T04:55:45.886Z,4.43
2022-09-09T05:00:48.176Z,4.93
2022-09-09T05:05:51.260Z,5.40
2022-09-09T05:10:52.860Z,6.00
2022-09-09T05:15:55.706Z,6.65
2022-09-09T05:21:01.669Z,6.07
2022-09-09T05:26:04.795Z,6.40
2022-09-09T05:31:13.651Z,5.45
2022-09-09T05:36:21.218Z,5.10
2022-09-09T05:41:25.515Z,5.07
2022-09-09T05:46:30.301Z,4.88
2022-09-09T05:51:32.082Z,4.50
2022-09-09T05:56:38.054Z,4.85
2022-09-09T06:01:42.102Z,5.13
2022-09-09T06:06:50.779Z,5.10
2022-09-09T06:11:55.300Z,5.10
2022-09-09T06:16:58.053Z,5.50
2022-09-09T06:22:03.999Z,6.03
2022-09-09T06:27:08.874Z,7.00
2022-09-09T06:32:11.823Z,7.18
2022-09-09T06:37:13.470Z,8.00
2022-09-09T06:42:22.719Z,6.85
2022-09-09T06:47:25.625Z,6.22
2022-09-09T06:52:27.763Z,5.75
2022-09-09T06:57:37.220Z,6.40
2022-09-09T07:02:42.082Z,5.90
2022-09-09T07:07:45.020Z,4.95
2022-09-09T07:12:53.923Z,5.35
2022-09-09T07:18:02.212Z,4.57
2022-09-09T07:23:04.530Z,4.65
2022-09-09T07:28:06.309Z,3.97
2022-09-09T07:33:08.496Z,3.80
2022-09-09T07:38:10.480Z,3.72
2022-09-09T07:43:17.145Z,3.85
2022-09-09T07:48:19.451Z,3.88
2022-09-09T07:53:21.045Z,3.55
2022-09-09T07:58:22.673Z,3.28
2022-09-09T08:03:24.704Z,3.25
2022-09-09T08:08:26.342Z,3.67
2022-09-09T08:13:28.124Z,5.25
2022-09-09T08:18:29.686Z,2.65
2022-09-09T08:23:31.140Z,3.30
2022-09-09T08:28:32.729Z,6.70
2022-09-09T08:33:34.554Z,3.00
2022-09-09T08:38:36.948Z,2.40
2022-09-09T08:43:40.070Z,2.53
2022-09-09T08:48:59.286Z,2.45
2022-09-09T08:54:04.183Z,2.70
2022-09-09T08:59:14.326Z,2.25
2022-09-09T09:04:38.050Z,2.60
2022-09-09T09:09:59.733Z,1.80
2022-09-09T09:15:02.241Z,1.50
2022-09-09T09:20:04.314Z,1.48
2022-09-09T09:25:21.344Z,2.45
2022-09-09T09:30:30.386Z,1.10
2022-09-09T09:35:41.938Z,1.38
2022-09-09T09:40:59.010Z,1.10
2022-09-09T09:46:17.710Z,0.90
2022-09-09T09:51:24.580Z,1.13
2022-09-09T09:56:30.059Z,0.70
2022-09-09T10:01:34.920Z,0.70
2022-09-09T10:06:40.830Z,1.17
2022-09-09T10:11:57.092Z,1.00
2022-09-09T10:17:28.138Z,0.70
2022-09-09T10:22:35.116Z,1.02
2022-09-09T10:27:47.590Z,2.00
2022-09-09T10:32:56.599Z,1.25
2022-09-09T10:38:16.863Z,0.80
2022-09-09T10:43:43.235Z,0.30
2022-09-09T10:49:27.788Z,0.47
2022-09-09T10:55:11.476Z,0.43
2022-09-09T11:00:20.545Z,0.50
2022-09-09T11:05:29.804Z,0.60
2022-09-09T11:10:53.521Z,0.68
2022-09-09T11:16:02.219Z,0.50
2022-09-09T11:21:06.698Z,0.63
2022-09-09T11:26:11.986Z,0.40
2022-09-09T11:31:16.575Z,0.40
2022-09-09T11:36:36.152Z,0.30
2022-09-09T11:41:38.620Z,0.40
2022-09-09T11:46:42.500Z,0.40
2022-09-09T11:51:44.079Z,0.50
2022-09-09T11:56:46.974Z,0.43
2022-09-09T12:01:57.417Z,0.47
2022-09-09T12:07:06.869Z,0.22
2022-09-09T12:12:14.705Z,0.50
2022-09-09T12:17:26.432Z,0.25
2022-09-09T12:22:31.854Z,0.30
2022-09-09T12:27:46.717Z,0.45
2022-09-09T12:32:48.219Z,0.50
2022-09-09T12:38:00.995Z,0.50
2022-09-09T12:43:23.421Z,0.50
2022-09-09T12:48:45.145Z,0.73
2022-09-09T12:53:47.349Z,0.40
2022-09-09T12:58:52.512Z,0.52
2022-09-09T13:03:54.583Z,0.30
2022-09-09T13:09:00.169Z,0.30
2022-09-09T13:14:02.381Z,0.60
2022-09-09T13:19:16.926Z,0.38
2022-09-09T13:24:30.346Z,0.60
2022-09-09T13:29:33.232Z,0.30
2022-09-09T13:34:36.489Z,0.40
2022-09-09T13:39:38.616Z,0.40
2022-09-09T13:44:42.633Z,0.65
2022-09-09T13:49:44.190Z,0.52
2022-09-09T13:54:50.886Z,0.70
2022-09-09T14:00:10.998Z,0.60
2022-09-09T14:05:12.742Z,1.02
2022-09-09T14:10:14.372Z,0.60
2022-09-09T14:15:16.214Z,0.93
2022-09-09T14:20:18.643Z,0.80
2022-09-09T14:25:20.240Z,0.50
2022-09-09T14:30:21.736Z,0.60
2022-09-09T14:35:27.579Z,0.88
2022-09-09T14:40:31.976Z,0.60
2022-09-09T14:45:34.770Z,0.50
2022-09-09T14:50:41.868Z,0.70
2022-09-09T14:55:45.559Z,0.47
2022-09-09T15:00:50.233Z,0.43
2022-09-09T15:05:52.171Z,0.80
2022-09-09T15:11:01.071Z,0.60
2022-09-09T15:16:16.490Z,0.70
2022-09-09T15:21:20.608Z,0.70
2022-09-09T15:26:22.265Z,0.77
2022-09-09T15:31:26.300Z,1.08
2022-09-09T15:36:36.172Z,0.90
2022-09-09T15:41:37.699Z,0.80
2022-09-09T15:46:42.098Z,0.98
2022-09-09T15:51:48.626Z,0.50
2022-09-09T15:56:58.593Z,1.00
2022-09-09T16:02:01.055Z,0.60
2022-09-09T16:07:05.084Z,0.65
2022-09-09T16:12:12.805Z,0.73
2022-09-09T16:17:15.207Z,0.75
2022-09-09T16:22:17.139Z,0.52
2022-09-09T16:27:19.047Z,0.50
2022-09-09T16:32:21.206Z,0.90
2022-09-09T16:37:22.671Z,0.93
2022-09-09T16:42:24.132Z,1.08
2022-09-09T16:47:26.302Z,0.55
2022-09-09T16:52:27.784Z,0.30
2022-09-09T16:57:31.175Z,0.32
2022-09-09T17:02:32.774Z,0.60
2022-09-09T17:07:34.293Z,0.60
2022-09-09T17:12:39.712Z,0.30
2022-09-09T17:17:46.026Z,0.32
2022-09-09T17:22:47.495Z,0.20
2022-09-09T17:27:48.998Z,0.30
2022-09-09T17:32:50.516Z,0.40
2022-09-09T17:37:54.342Z,0.47
2022-09-09T17:42:58.090Z,0.70
2022-09-09T17:47:59.647Z,0.75
2022-09-09T17:53:01.412Z,0.50
2022-09-09T17:58:03.156Z,0.32
2022-09-09T18:03:04.917Z,0.60
2022-09-09T18:08:06.553Z,0.68
2022-09-09T18:13:09.977Z,0.60
2022-09-09T18:18:11.524Z,0.43
2022-09-09T18:23:13.356Z,0.60
2022-09-09T18:28:15.139Z,0.40
2022-09-09T18:33:16.696Z,0.75
2022-09-09T18:38:18.443Z,0.30
2022-09-09T18:43:19.991Z,0.38
2022-09-09T18:48:23.871Z,0.40
2022-09-09T18:53:25.391Z,0.30
2022-09-09T18:58:27.220Z,0.38
2022-09-09T19:03:30.110Z,1.02
2022-09-09T19:08:37.230Z,0.57
2022-09-09T19:13:39.462Z,0.50
2022-09-09T19:18:44.825Z,0.30
2022-09-09T19:23:47.695Z,0.38
2022-09-09T19:28:50.224Z,0.80
2022-09-09T19:33:52.796Z,0.60
2022-09-09T19:38:55.764Z,0.60
2022-09-09T19:44:03.090Z,0.80
2022-09-09T19:49:06.738Z,0.60
2022-09-09T19:54:11.431Z,0.60
2022-09-09T19:59:13.575Z,0.65
2022-09-09T20:04:15.449Z,0.60
2022-09-09T20:09:18.263Z,0.60
2022-09-09T20:14:20.084Z,0.75
2022-09-09T20:19:22.729Z,0.70
2022-09-09T20:24:26.302Z,0.80
2022-09-09T20:29:27.859Z,0.80
2022-09-09T20:34:30.131Z,0.95
2022-09-09T20:39:32.801Z,0.73
2022-09-09T20:44:34.389Z,0.60
2022-09-09T20:49:35.883Z,0.93
2022-09-09T20:54:39.012Z,0.47
2022-09-09T20:59:41.953Z,0.43
2022-09-09T21:04:44.958Z,0.63
2022-09-09T21:09:46.444Z,0.50
2022-09-09T21:14:47.971Z,0.70
2022-09-09T21:19:49.482Z,0.52
2022-09-09T21:24:51.243Z,0.55
2022-09-09T21:29:52.924Z,0.52
2022-09-09T21:34:54.424Z,0.68
2022-09-09T21:39:55.957Z,0.40
2022-09-09T21:44:57.734Z,0.50
2022-09-09T21:50:01.124Z,0.70
2022-09-09T21:55:02.659Z,0.88
2022-09-09T22:00:08.869Z,0.75
2022-09-09T22:05:14.438Z,1.13
2022-09-09T22:10:16.168Z,1.40
2022-09-09T22:15:17.849Z,1.20
2022-09-09T22:20:19.358Z,1.13
2022-09-09T22:25:21.991Z,0.90
2022-09-09T22:30:23.528Z,0.60
2022-09-09T22:35:25.070Z,1.10
2022-09-09T22:40:26.587Z,0.90
2022-09-09T22:45:28.113Z,0.65
2022-09-09T22:50:37.846Z,0.80
2022-09-09T22:55:41.895Z,0.90
2022-09-09T23:00:43.374Z,0.70
2022-09-09T23:05:53.580Z,0.60
2022-09-09T23:10:55.788Z,1.13
2022-09-09T23:15:57.704Z,0.70
2022-09-09T23:21:02.236Z,0.80
2022-09-09T23:26:05.251Z,0.80
2022-09-09T23:31:09.871Z,0.70
2022-09-09T23:36:14.910Z,0.68
2022-09-09T23:41:21.741Z,0.70
2022-09-09T23:46:27.685Z,0.80
2022-09-09T23:51:34.732Z,1.08
2022-09-09T23:56:39.178Z,0.80
